createdAt,value
2023-04-15T00:01:01.509Z,2.40
2023-04-15T00:03:30.144Z,2.60
2023-04-15T00:05:58.922Z,2.50
2023-04-15T00:08:27.482Z,2.80
2023-04-15T00:10:55.640Z,1.50
2023-04-15T00:13:23.797Z,2.70
2023-04-15T00:15:52.382Z,2.40
2023-04-15T00:18:20.360Z,2.90
2023-04-15T00:20:48.855Z,2.80
2023-04-15T00:23:18.182Z,3.10
2023-04-15T00:25:46.490Z,2.80
2023-04-15T00:28:14.557Z,2.80
2023-04-15T00:30:44.562Z,2.40
2023-04-15T00:33:13.960Z,3.00
2023-04-15T00:35:42.137Z,2.30
2023-04-15T00:38:10.392Z,3.70
2023-04-15T00:40:38.623Z,3.10
2023-04-15T00:43:07.186Z,3.20
2023-04-15T00:45:35.722Z,3.00
2023-04-15T00:48:04.686Z,3.10
2023-04-15T00:50:33.476Z,2.60
2023-04-15T00:53:01.653Z,2.90
2023-04-15T00:55:29.810Z,3.20
2023-04-15T00:57:58.181Z,3.40
2023-04-15T01:00:27.065Z,2.80
2023-04-15T01:02:55.166Z,3.20
2023-04-15T01:05:23.727Z,3.40
2023-04-15T01:07:51.992Z,3.50
2023-04-15T01:10:19.945Z,3.70
2023-04-15T01:12:48.172Z,3.70
2023-04-15T01:15:16.400Z,3.20
2023-04-15T01:17:44.821Z,3.30
2023-04-15T01:20:13.448Z,4.00
2023-04-15T01:22:41.780Z,3.80
2023-04-15T01:25:13.263Z,3.40
2023-04-15T01:27:42.684Z,3.20
2023-04-15T01:30:11.620Z,3.40
2023-04-15T01:32:39.661Z,2.50
2023-04-15T01:35:07.973Z,3.60
2023-04-15T01:37:36.931Z,3.20
2023-04-15T01:40:05.531Z,3.30
2023-04-15T01:42:34.103Z,3.60
2023-04-15T01:45:02.818Z,3.70
2023-04-15T01:47:31.298Z,4.60
2023-04-15T01:49:59.278Z,4.20
2023-04-15T01:52:27.339Z,4.40
2023-04-15T01:54:55.275Z,4.30
2023-04-15T01:57:23.417Z,4.30
2023-04-15T01:59:54.360Z,3.80
2023-04-15T02:02:22.963Z,4.00
2023-04-15T02:04:51.341Z,4.40
2023-04-15T02:07:20.959Z,3.70
2023-04-15T02:09:48.985Z,6.10
2023-04-15T02:12:17.083Z,4.30
2023-04-15T02:14:46.306Z,5.00
2023-04-15T02:17:14.221Z,3.90
2023-04-15T02:19:44.698Z,4.60
2023-04-15T02:22:18.705Z,4.10
2023-04-15T02:24:47.897Z,3.90
2023-04-15T02:27:17.366Z,4.30
2023-04-15T02:29:46.065Z,4.30
2023-04-15T02:32:14.640Z,3.80
2023-04-15T02:34:43.030Z,3.20
2023-04-15T02:37:12.565Z,4.60
2023-04-15T02:39:40.680Z,4.80
2023-04-15T02:42:08.743Z,4.70
2023-04-15T02:44:38.153Z,4.70
2023-04-15T02:47:07.721Z,5.20
2023-04-15T02:49:35.883Z,3.60
2023-04-15T02:52:04.066Z,5.00
2023-04-15T02:54:34.301Z,4.90
2023-04-15T02:57:04.098Z,4.00
2023-04-15T02:59:32.324Z,5.00
2023-04-15T03:02:57.358Z,5.30
2023-04-15T03:05:44.611Z,5.20
2023-04-15T03:08:14.911Z,5.20
2023-04-15T03:10:42.870Z,5.10
2023-04-15T03:13:11.399Z,4.80
2023-04-15T03:15:40.081Z,5.20
2023-04-15T03:18:08.232Z,5.10
2023-04-15T03:20:36.638Z,5.20
2023-04-15T03:23:05.347Z,5.50
2023-04-15T03:25:33.435Z,5.50
2023-04-15T03:28:01.580Z,5.70
2023-04-15T03:30:29.684Z,5.40
2023-04-15T03:32:57.939Z,4.70
2023-04-15T03:35:27.120Z,5.30
2023-04-15T03:37:57.480Z,4.60
2023-04-15T03:40:26.700Z,5.30
2023-04-15T03:42:54.793Z,5.40
2023-04-15T03:45:22.829Z,5.50
2023-04-15T03:47:51.244Z,4.80
2023-04-15T03:50:19.422Z,5.10
2023-04-15T03:52:48.290Z,5.70
2023-04-15T03:55:17.652Z,4.80
2023-04-15T03:57:46.089Z,5.40
2023-04-15T04:00:14.246Z,5.30
2023-04-15T04:02:42.317Z,4.30
2023-04-15T04:05:10.860Z,5.40
2023-04-15T04:07:38.881Z,5.40
2023-04-15T04:10:07.305Z,4.90
2023-04-15T04:12:35.424Z,4.00
2023-04-15T04:15:03.940Z,5.00
2023-04-15T04:17:31.988Z,4.90
2023-04-15T04:20:00.211Z,5.00
2023-04-15T04:22:28.295Z,4.50
2023-04-15T04:24:56.842Z,5.20
2023-04-15T04:27:25.571Z,6.00
2023-04-15T04:29:53.480Z,5.50
2023-04-15T04:32:21.931Z,4.60
2023-04-15T04:34:50.145Z,5.10
2023-04-15T04:37:18.304Z,4.60
2023-04-15T04:39:46.290Z,5.80
2023-04-15T04:42:14.459Z,4.80
2023-04-15T04:44:42.933Z,6.00
2023-04-15T04:47:11.588Z,4.90
2023-04-15T04:49:39.861Z,4.90
2023-04-15T04:52:08.007Z,5.50
2023-04-15T04:54:35.993Z,4.80
2023-04-15T04:57:05.082Z,4.80
2023-04-15T04:59:33.355Z,4.80
2023-04-15T05:02:01.581Z,4.50
2023-04-15T05:04:29.694Z,4.90
2023-04-15T05:06:58.506Z,4.80
2023-04-15T05:09:26.680Z,4.70
2023-04-15T05:11:54.657Z,5.10
2023-04-15T05:14:23.403Z,3.80
2023-04-15T05:16:51.584Z,4.60
2023-04-15T05:19:19.603Z,4.70
2023-04-15T05:21:47.596Z,4.80
2023-04-15T05:24:15.727Z,4.50
2023-04-15T05:26:44.057Z,5.10
2023-04-15T05:29:12.123Z,5.20
2023-04-15T05:31:40.234Z,4.00
2023-04-15T05:34:08.715Z,4.10
2023-04-15T05:36:36.839Z,4.30
2023-04-15T05:39:04.982Z,4.50
2023-04-15T05:41:33.207Z,5.50
2023-04-15T05:44:01.652Z,4.90
2023-04-15T05:46:29.623Z,4.60
2023-04-15T05:48:57.847Z,5.30
2023-04-15T05:51:26.599Z,4.40
2023-04-15T05:53:54.648Z,3.50
2023-04-15T05:56:22.819Z,4.70
2023-04-15T05:58:53.367Z,4.60
2023-04-15T06:01:22.437Z,4.60
2023-04-15T06:03:51.390Z,4.00
2023-04-15T06:06:20.639Z,4.50
2023-04-15T06:08:48.473Z,4.50
2023-04-15T06:11:16.488Z,4.80
2023-04-15T06:13:44.743Z,4.60
2023-04-15T06:16:12.695Z,4.50
2023-04-15T06:18:40.811Z,4.00
2023-04-15T06:21:08.973Z,4.60
2023-04-15T06:23:37.244Z,4.00
2023-04-15T06:26:05.515Z,4.20
2023-04-15T06:28:33.592Z,4.40
2023-04-15T06:31:02.126Z,4.20
2023-04-15T06:33:30.847Z,2.70
2023-04-15T06:35:59.234Z,4.20
2023-04-15T06:38:27.135Z,3.70
2023-04-15T06:40:55.574Z,4.00
2023-04-15T06:43:23.714Z,4.20
2023-04-15T06:45:51.850Z,4.40
2023-04-15T06:48:19.983Z,3.80
2023-04-15T06:50:48.360Z,4.40
2023-04-15T06:53:16.354Z,3.30
2023-04-15T06:55:45.002Z,3.50
2023-04-15T06:58:15.405Z,3.40
2023-04-15T07:00:43.564Z,3.90
2023-04-15T07:03:13.281Z,3.00
2023-04-15T07:05:41.871Z,3.80
2023-04-15T07:08:09.812Z,3.70
2023-04-15T07:10:38.265Z,4.10
2023-04-15T07:13:07.530Z,3.10
2023-04-15T07:15:35.856Z,3.50
2023-04-15T07:18:04.376Z,3.80
2023-04-15T07:20:32.656Z,3.60
2023-04-15T07:23:00.694Z,4.30
2023-04-15T07:25:28.748Z,3.40
2023-04-15T07:27:57.174Z,2.90
2023-04-15T07:30:25.286Z,3.20
2023-04-15T07:32:53.483Z,3.60
2023-04-15T07:35:21.856Z,3.50
2023-04-15T07:37:49.949Z,2.40
2023-04-15T07:40:18.348Z,2.80
2023-04-15T07:42:48.595Z,2.00
2023-04-15T07:45:17.005Z,2.40
2023-04-15T07:47:45.006Z,2.00
2023-04-15T07:50:13.135Z,1.80
2023-04-15T07:52:43.182Z,2.10
2023-04-15T07:55:11.677Z,1.80
2023-04-15T07:57:39.744Z,2.00
2023-04-15T08:00:10.594Z,1.70
2023-04-15T08:02:41.950Z,1.00
2023-04-15T08:05:11.009Z,1.60
2023-04-15T08:07:39.027Z,1.50
2023-04-15T08:10:10.696Z,1.30
2023-04-15T08:12:44.936Z,1.90
2023-04-15T09:34:38.271Z,1.10
2023-04-15T09:37:08.118Z,1.10
2023-04-15T09:39:50.366Z,1.10
2023-04-15T09:42:27.500Z,1.10
2023-04-15T09:44:55.589Z,1.30
2023-04-15T09:47:33.051Z,1.00
2023-04-15T09:50:02.525Z,1.20
2023-04-15T09:52:32.169Z,1.90
2023-04-15T09:55:01.092Z,1.20
2023-04-15T09:57:36.921Z,1.00
2023-04-15T10:00:08.420Z,1.00
2023-04-15T10:02:40.902Z,1.20
2023-04-15T10:05:14.991Z,0.60
2023-04-15T10:07:43.765Z,1.70
2023-04-15T10:10:16.276Z,1.30
2023-04-15T10:12:45.603Z,1.00
2023-04-15T10:15:17.891Z,0.60
2023-04-15T10:17:48.304Z,1.40
2023-04-15T10:20:19.986Z,0.50
2023-04-15T10:22:50.205Z,2.70
2023-04-15T10:25:19.285Z,1.30
2023-04-15T10:27:49.883Z,0.80
2023-04-15T10:30:25.936Z,0.70
2023-04-15T10:32:55.587Z,1.10
2023-04-15T10:35:25.193Z,1.70
2023-04-15T10:37:56.374Z,2.10
2023-04-15T10:40:35.300Z,2.00
2023-04-15T10:43:03.927Z,1.70
2023-04-15T10:45:39.422Z,1.10
2023-04-15T10:48:09.209Z,1.20
2023-04-15T10:50:40.276Z,0.80
2023-04-15T10:53:11.299Z,2.20
2023-04-15T10:55:39.379Z,1.00
2023-04-15T10:58:10.524Z,0.90
2023-04-15T11:00:40.309Z,0.90
2023-04-15T11:03:10.114Z,1.00
2023-04-15T11:05:41.732Z,1.70
2023-04-15T11:08:12.950Z,3.00
2023-04-15T11:10:41.144Z,2.20
2023-04-15T11:13:12.039Z,1.40
2023-04-15T11:16:05.262Z,1.20
2023-04-15T11:18:34.808Z,1.30
2023-04-15T11:21:07.875Z,1.40
2023-04-15T11:23:39.920Z,1.30
2023-04-15T11:26:12.218Z,1.60
2023-04-15T11:28:42.898Z,1.70
2023-04-15T11:31:13.561Z,1.90
2023-04-15T11:33:56.664Z,1.50
2023-04-15T11:36:30.478Z,1.00
2023-04-15T11:38:59.778Z,1.30
2023-04-15T11:41:28.926Z,1.90
2023-04-15T11:43:56.914Z,1.10
2023-04-15T11:46:32.163Z,0.80
2023-04-15T11:49:01.778Z,1.00
2023-04-15T11:51:34.276Z,2.40
2023-04-15T11:54:03.001Z,1.20
2023-04-15T11:56:32.128Z,1.50
2023-04-15T11:59:00.335Z,1.20
2023-04-15T12:01:46.687Z,1.10
2023-04-15T12:04:25.362Z,0.60
2023-04-15T12:06:54.188Z,1.30
2023-04-15T12:09:22.326Z,1.10
2023-04-15T12:11:57.727Z,0.60
2023-04-15T12:14:31.278Z,0.70
2023-04-15T12:17:01.613Z,0.90
2023-04-15T12:19:43.355Z,1.20
2023-04-15T12:22:13.102Z,1.10
2023-04-15T12:24:52.516Z,1.20
2023-04-15T12:27:21.375Z,1.40
2023-04-15T12:29:49.813Z,0.90
2023-04-15T12:32:21.610Z,1.40
2023-04-15T12:34:52.390Z,1.00
2023-04-15T12:37:22.282Z,1.20
2023-04-15T12:39:51.660Z,1.00
2023-04-15T12:42:20.737Z,0.70
2023-04-15T12:44:48.707Z,0.80
2023-04-15T12:47:16.823Z,1.50
2023-04-15T12:49:45.868Z,1.50
2023-04-15T12:52:16.683Z,1.30
2023-04-15T12:54:44.938Z,1.50
2023-04-15T12:57:12.988Z,0.40
2023-04-15T12:59:41.197Z,0.60
2023-04-15T13:02:09.225Z,0.70
2023-04-15T13:04:37.587Z,0.70
2023-04-15T13:07:05.782Z,0.70
2023-04-15T13:09:34.141Z,0.50
2023-04-15T13:12:02.224Z,0.50
2023-04-15T13:14:31.263Z,0.60
2023-04-15T13:16:59.495Z,0.60
2023-04-15T13:19:27.919Z,0.80
2023-04-15T13:21:56.246Z,0.70
2023-04-15T13:24:24.232Z,0.60
2023-04-15T13:26:53.710Z,0.50
2023-04-15T13:29:22.328Z,0.50
2023-04-15T13:31:50.594Z,0.60
2023-04-15T13:34:18.957Z,0.60
2023-04-15T13:36:47.335Z,0.50
2023-04-15T13:39:15.489Z,0.60
2023-04-15T13:41:43.646Z,0.30
2023-04-15T13:44:12.785Z,0.30
2023-04-15T13:46:42.765Z,0.50
2023-04-15T13:49:10.947Z,0.40
2023-04-15T13:51:38.928Z,0.30
2023-04-15T13:54:07.155Z,0.50
2023-04-15T13:56:35.575Z,0.50
2023-04-15T13:59:03.853Z,1.90
2023-04-15T14:01:32.225Z,0.50
2023-04-15T14:04:00.569Z,0.40
2023-04-15T14:06:29.121Z,0.40
2023-04-15T14:08:57.370Z,0.60
2023-04-15T14:11:25.372Z,0.40
2023-04-15T14:13:56.068Z,0.60
2023-04-15T14:16:24.325Z,0.40
2023-04-15T14:18:52.666Z,0.30
2023-04-15T14:21:21.025Z,0.30
2023-04-15T14:23:49.055Z,0.40
2023-04-15T14:26:17.125Z,0.40
2023-04-15T14:28:45.266Z,0.30
2023-04-15T14:31:14.349Z,0.40
2023-04-15T14:33:45.018Z,0.30
2023-04-15T14:36:13.276Z,0.40
2023-04-15T14:38:41.492Z,0.40
2023-04-15T14:41:10.253Z,0.40
2023-04-15T14:43:39.434Z,0.30
2023-04-15T14:46:08.627Z,0.50
2023-04-15T14:48:37.173Z,0.30
2023-04-15T14:51:08.693Z,0.40
2023-04-15T14:53:36.714Z,0.30
2023-04-15T14:56:05.376Z,0.30
2023-04-15T14:58:33.610Z,0.20
2023-04-15T15:01:03.061Z,0.30
2023-04-15T15:03:34.084Z,0.40
2023-04-15T15:06:02.413Z,0.30
2023-04-15T15:08:30.593Z,0.30
2023-04-15T15:10:58.856Z,0.30
2023-04-15T15:13:26.948Z,0.40
2023-04-15T15:15:55.184Z,0.30
2023-04-15T15:18:25.721Z,0.30
2023-04-15T15:20:53.796Z,0.30
2023-04-15T15:23:21.724Z,0.30
2023-04-15T15:25:50.012Z,0.30
2023-04-15T15:28:18.302Z,0.30
2023-04-15T15:30:46.307Z,0.50
2023-04-15T15:33:14.376Z,0.30
2023-04-15T15:35:42.505Z,0.30
2023-04-15T15:38:12.237Z,0.30
2023-04-15T15:40:40.551Z,0.30
2023-04-15T15:43:09.020Z,0.20
2023-04-15T15:45:37.045Z,0.30
2023-04-15T15:48:06.026Z,0.30
2023-04-15T15:50:34.542Z,0.30
2023-04-15T15:53:02.560Z,0.30
2023-04-15T15:55:30.719Z,0.20
2023-04-15T15:57:58.651Z,0.30
2023-04-15T16:00:26.519Z,0.20
2023-04-15T16:05:28.588Z,0.30
2023-04-15T16:07:56.699Z,0.30
2023-04-15T16:10:24.754Z,0.20
2023-04-15T16:12:52.921Z,0.30
2023-04-15T16:15:23.940Z,0.20
2023-04-15T16:17:52.359Z,0.30
2023-04-15T16:20:20.718Z,0.20
2023-04-15T16:22:48.818Z,0.30
2023-04-15T16:25:16.943Z,0.30
2023-04-15T16:27:57.637Z,0.30
2023-04-15T16:30:27.470Z,0.20
2023-04-15T16:32:55.537Z,0.20
2023-04-15T16:35:23.484Z,0.20
2023-04-15T16:37:51.531Z,0.30
2023-04-15T16:40:19.744Z,0.30
2023-04-15T16:42:48.437Z,0.30
2023-04-15T16:45:20.006Z,0.20
2023-04-15T16:47:48.127Z,0.20
2023-04-15T16:50:19.011Z,0.20
2023-04-15T16:52:47.413Z,0.20
2023-04-15T16:55:15.869Z,0.40
2023-04-15T16:58:03.240Z,0.30
2023-04-15T17:00:33.237Z,0.20
2023-04-15T17:03:01.511Z,0.30
2023-04-15T17:05:31.969Z,0.30
2023-04-15T17:08:00.400Z,0.40
2023-04-15T17:10:28.310Z,0.30
2023-04-15T17:12:57.678Z,0.30
2023-04-15T17:15:26.700Z,0.30
2023-04-15T17:17:54.924Z,0.30
2023-04-15T17:20:23.100Z,0.30
2023-04-15T17:22:51.583Z,0.40
2023-04-15T17:25:19.656Z,0.30
2023-04-15T17:27:47.612Z,0.30
2023-04-15T17:30:16.009Z,0.30
2023-04-15T17:32:44.329Z,0.40
2023-04-15T17:35:12.455Z,0.30
2023-04-15T17:37:41.113Z,0.40
2023-04-15T17:40:09.516Z,0.30
2023-04-15T17:42:37.392Z,0.30
2023-04-15T17:45:07.502Z,0.30
2023-04-15T17:47:35.649Z,0.30
2023-04-15T17:50:03.853Z,0.40
2023-04-15T17:52:32.185Z,0.50
2023-04-15T17:55:00.391Z,0.30
2023-04-15T17:57:28.881Z,0.40
2023-04-15T17:59:57.647Z,0.60
2023-04-15T18:02:25.835Z,0.50
2023-04-15T18:04:54.236Z,0.40
2023-04-15T18:07:26.047Z,0.30
2023-04-15T18:09:56.068Z,0.40
2023-04-15T18:12:24.204Z,0.40
2023-04-15T18:14:52.971Z,0.30
2023-04-15T18:17:21.034Z,0.50
2023-04-15T18:19:49.144Z,0.30
2023-04-15T18:22:17.740Z,0.60
2023-04-15T18:24:45.878Z,0.40
2023-04-15T18:27:18.399Z,0.50
2023-04-15T18:29:47.464Z,0.30
2023-04-15T18:32:15.420Z,0.60
2023-04-15T18:34:43.647Z,1.00
2023-04-15T18:37:11.871Z,1.00
2023-04-15T18:39:39.916Z,0.90
2023-04-15T18:42:08.125Z,0.80
2023-04-15T18:44:36.126Z,0.40
2023-04-15T18:47:04.317Z,0.30
2023-04-15T18:49:33.413Z,3.60
2023-04-15T18:52:01.378Z,8.80
2023-04-15T18:54:30.753Z,14.80
2023-04-15T18:57:02.281Z,6.50
2023-04-15T18:59:31.978Z,2.80
2023-04-15T19:02:01.507Z,5.80
2023-04-15T19:04:29.978Z,1.60
2023-04-15T19:06:59.344Z,1.00
2023-04-15T19:09:28.973Z,2.30
2023-04-15T19:11:57.809Z,2.10
2023-04-15T19:14:25.996Z,1.70
2023-04-15T19:16:54.283Z,0.80
2023-04-15T19:19:22.558Z,0.50
2023-04-15T19:21:51.190Z,1.30
2023-04-15T19:24:20.126Z,2.00
2023-04-15T19:26:52.633Z,2.20
2023-04-15T19:29:22.036Z,12.70
2023-04-15T19:31:50.720Z,5.90
2023-04-15T19:34:18.716Z,1.50
2023-04-15T19:36:46.911Z,1.30
2023-04-15T19:39:14.842Z,0.90
2023-04-15T19:41:44.503Z,2.50
2023-04-15T19:44:13.849Z,0.80
2023-04-15T19:46:44.245Z,1.00
2023-04-15T19:49:12.537Z,3.60
2023-04-15T19:51:41.600Z,1.10
2023-04-15T19:54:09.483Z,0.60
2023-04-15T19:56:37.514Z,0.50
2023-04-15T19:59:06.039Z,2.10
2023-04-15T20:01:34.081Z,0.80
2023-04-15T20:04:04.206Z,1.70
2023-04-15T20:06:32.852Z,4.50
2023-04-15T20:09:01.132Z,1.20
2023-04-15T20:12:45.606Z,1.20
2023-04-15T20:14:17.937Z,6.80
2023-04-15T20:16:46.265Z,5.00
2023-04-15T20:19:14.749Z,1.30
2023-04-15T20:21:43.130Z,4.90
2023-04-15T20:24:11.243Z,2.20
2023-04-15T20:26:39.795Z,1.10
2023-04-15T20:29:08.906Z,1.70
2023-04-15T20:31:40.122Z,1.60
2023-04-15T20:34:10.658Z,1.40
2023-04-15T20:36:39.971Z,2.60
2023-04-15T20:39:08.141Z,2.20
2023-04-15T20:41:36.097Z,1.50
2023-04-15T20:44:04.301Z,0.90
2023-04-15T20:46:32.390Z,1.50
2023-04-15T20:49:01.012Z,2.20
2023-04-15T20:51:33.114Z,2.20
2023-04-15T20:54:01.439Z,0.40
2023-04-15T20:56:29.547Z,1.00
2023-04-15T20:58:57.743Z,0.80
2023-04-15T21:01:26.062Z,1.70
2023-04-15T21:03:54.174Z,1.10
2023-04-15T21:06:22.261Z,1.00
2023-04-15T21:08:52.602Z,0.50
2023-04-15T21:11:38.811Z,0.80
2023-04-15T21:14:09.371Z,1.40
2023-04-15T21:16:37.388Z,0.50
2023-04-15T21:19:05.723Z,0.80
2023-04-15T21:21:34.154Z,1.10
2023-04-15T21:24:02.370Z,1.00
2023-04-15T21:26:30.392Z,1.80
2023-04-15T21:28:58.606Z,0.90
2023-04-15T21:31:26.647Z,0.90
2023-04-15T21:33:54.565Z,0.50
2023-04-15T21:36:22.643Z,0.50
2023-04-15T21:38:50.753Z,0.50
2023-04-15T21:41:18.694Z,1.10
2023-04-15T21:43:47.243Z,0.70
2023-04-15T21:46:24.217Z,0.70
2023-04-15T21:48:53.701Z,0.80
2023-04-15T21:51:21.822Z,0.70
2023-04-15T21:53:49.674Z,0.50
2023-04-15T21:56:18.008Z,0.60
2023-04-15T21:58:46.303Z,0.50
2023-04-15T22:01:14.434Z,0.40
2023-04-15T22:03:42.799Z,2.60
2023-04-15T22:06:11.176Z,0.70
2023-04-15T22:08:52.562Z,0.60
2023-04-15T22:11:28.689Z,5.00
2023-04-15T22:13:57.870Z,4.20
2023-04-15T22:16:26.690Z,1.80
2023-04-15T22:18:55.734Z,2.70
2023-04-15T22:21:23.935Z,0.70
2023-04-15T22:24:38.792Z,0.90
2023-04-15T22:26:41.952Z,0.60
2023-04-15T22:29:10.741Z,2.20
2023-04-15T22:31:38.789Z,1.60
2023-04-15T22:34:06.908Z,0.60
2023-04-15T22:36:35.134Z,0.50
2023-04-15T22:39:03.175Z,0.60
2023-04-15T22:41:31.368Z,0.60
2023-04-15T22:43:59.521Z,0.70
2023-04-15T22:46:27.514Z,3.10
2023-04-15T22:48:55.909Z,0.60
2023-04-15T22:51:28.028Z,0.50
2023-04-15T22:53:56.577Z,0.80
2023-04-15T22:56:24.776Z,2.10
2023-04-15T22:58:52.736Z,0.70
2023-04-15T23:01:21.508Z,1.10
2023-04-15T23:03:56.304Z,3.90
2023-04-15T23:06:25.820Z,3.80
2023-04-15T23:08:54.322Z,0.60
2023-04-15T23:11:22.422Z,1.70
2023-04-15T23:13:50.919Z,0.60
2023-04-15T23:16:19.054Z,7.40
2023-04-15T23:18:47.012Z,6.60
2023-04-15T23:21:15.159Z,4.40
2023-04-15T23:23:43.169Z,2.10
2023-04-15T23:26:11.015Z,7.30
2023-04-15T23:28:39.157Z,6.00
2023-04-15T23:31:07.241Z,10.90
2023-04-15T23:33:35.208Z,5.30
2023-04-15T23:36:06.710Z,3.30
2023-04-15T23:38:35.456Z,3.40
2023-04-15T23:41:03.446Z,1.30
2023-04-15T23:43:31.687Z,5.10
2023-04-15T23:45:59.748Z,1.40
2023-04-15T23:48:27.679Z,2.60
2023-04-15T23:50:56.232Z,1.60
2023-04-15T23:53:24.322Z,1.70
2023-04-15T23:55:52.174Z,2.10
2023-04-15T23:58:20.443Z,1.50
